createdAt,value
2018-06-20T00:01:12.331Z,21.26
2018-06-20T00:03:40.917Z,21.09
2018-06-20T00:06:09.590Z,20.96
2018-06-20T00:08:43.339Z,20.99
2018-06-20T00:11:11.982Z,20.92
2018-06-20T00:13:40.569Z,20.87
2018-06-20T00:16:09.161Z,20.82
2018-06-20T00:18:38.529Z,20.78
2018-06-20T00:21:07.095Z,20.82
2018-06-20T00:23:35.695Z,20.87
2018-06-20T00:26:04.275Z,20.74
2018-06-20T00:28:32.845Z,20.71
2018-06-20T00:31:01.430Z,20.62
2018-06-20T00:33:30.109Z,20.63
2018-06-20T00:35:58.696Z,20.64
2018-06-20T00:38:27.330Z,20.54
2018-06-20T00:40:55.950Z,20.46
2018-06-20T00:43:24.542Z,20.42
2018-06-20T00:45:53.161Z,20.54
2018-06-20T00:48:21.870Z,20.65
2018-06-20T00:50:50.481Z,20.63
2018-06-20T00:53:19.090Z,20.70
2018-06-20T00:55:58.601Z,20.66
2018-06-20T00:58:27.219Z,20.84
2018-06-20T01:00:55.845Z,20.75
2018-06-20T01:08:44.837Z,20.66
2018-06-20T01:11:13.720Z,20.47
2018-06-20T01:13:42.346Z,20.56
2018-06-20T01:16:11.273Z,20.49
2018-06-20T01:18:39.882Z,20.45
2018-06-20T01:21:08.562Z,20.51
2018-06-20T01:23:37.190Z,20.36
2018-06-20T01:26:05.854Z,20.29
2018-06-20T01:28:34.509Z,20.24
2018-06-20T01:31:03.182Z,20.23
2018-06-20T01:33:31.818Z,20.12
2018-06-20T01:36:00.414Z,20.05
2018-06-20T01:38:29.110Z,20.17
2018-06-20T01:40:57.766Z,20.18
2018-06-20T01:43:26.477Z,20.23
2018-06-20T01:45:55.158Z,20.15
2018-06-20T01:48:23.823Z,20.10
2018-06-20T01:50:55.747Z,20.12
2018-06-20T01:53:24.368Z,20.11
2018-06-20T01:55:53.124Z,20.07
2018-06-20T01:58:22.391Z,20.06
2018-06-20T02:00:51.091Z,20.02
2018-06-20T02:03:19.719Z,19.89
2018-06-20T02:05:49.074Z,19.82
2018-06-20T02:08:17.717Z,19.71
2018-06-20T02:10:46.366Z,19.65
2018-06-20T02:13:14.986Z,19.64
2018-06-20T02:15:43.600Z,19.61
2018-06-20T02:18:12.899Z,19.55
2018-06-20T02:20:41.614Z,19.61
2018-06-20T02:23:10.311Z,19.59
2018-06-20T02:25:38.937Z,19.62
2018-06-20T02:28:07.646Z,19.63
2018-06-20T02:30:36.307Z,19.56
2018-06-20T02:33:05.130Z,19.52
2018-06-20T02:35:33.820Z,19.56
2018-06-20T02:38:02.461Z,19.81
2018-06-20T02:40:31.236Z,19.88
2018-06-20T02:42:59.922Z,19.71
2018-06-20T02:45:28.633Z,19.57
2018-06-20T02:47:58.275Z,19.48
2018-06-20T02:50:26.953Z,19.41
2018-06-20T02:52:55.616Z,19.39
2018-06-20T02:55:24.446Z,19.40
2018-06-20T02:57:53.298Z,19.46
2018-06-20T03:00:22.574Z,19.41
2018-06-20T03:02:51.274Z,19.50
2018-06-20T03:05:19.953Z,19.53
2018-06-20T03:07:48.591Z,19.59
2018-06-20T03:10:17.239Z,19.63
2018-06-20T03:12:45.884Z,19.64
2018-06-20T03:15:14.550Z,19.69
2018-06-20T03:17:43.198Z,19.75
2018-06-20T03:20:12.403Z,19.64
2018-06-20T03:22:41.031Z,19.66
2018-06-20T03:25:09.782Z,19.75
2018-06-20T03:27:38.515Z,19.81
2018-06-20T03:30:07.222Z,19.84
2018-06-20T03:32:35.870Z,19.84
2018-06-20T03:35:04.534Z,19.86
2018-06-20T03:37:33.143Z,19.86
2018-06-20T03:40:01.821Z,19.94
2018-06-20T03:42:30.470Z,19.95
2018-06-20T03:44:59.119Z,19.93
2018-06-20T03:47:27.771Z,19.92
2018-06-20T03:49:56.431Z,20.04
2018-06-20T03:52:25.078Z,20.14
2018-06-20T03:54:54.034Z,20.47
2018-06-20T03:57:22.690Z,20.54
2018-06-20T03:59:51.347Z,20.55
2018-06-20T04:02:23.552Z,20.57
2018-06-20T04:04:52.794Z,20.61
2018-06-20T04:07:21.386Z,20.63
2018-06-20T04:09:50.219Z,20.72
2018-06-20T04:12:18.853Z,20.76
2018-06-20T04:14:47.479Z,20.88
2018-06-20T04:17:17.039Z,20.99
2018-06-20T04:19:45.786Z,21.02
2018-06-20T04:22:14.946Z,21.03
2018-06-20T04:24:44.138Z,21.12
2018-06-20T04:27:12.852Z,21.17
2018-06-20T04:29:41.544Z,21.30
2018-06-20T04:32:10.174Z,21.50
2018-06-20T04:34:40.666Z,21.45
2018-06-20T04:37:09.279Z,21.57
2018-06-20T04:39:38.791Z,21.75
2018-06-20T04:42:08.368Z,21.79
2018-06-20T04:44:37.124Z,21.88
2018-06-20T04:47:05.723Z,21.98
2018-06-20T04:49:34.403Z,22.16
2018-06-20T04:52:03.021Z,22.24
2018-06-20T04:54:31.629Z,22.21
2018-06-20T04:57:00.242Z,22.29
2018-06-20T04:59:28.909Z,22.33
2018-06-20T05:01:57.519Z,22.49
2018-06-20T05:04:26.167Z,22.57
2018-06-20T05:06:54.773Z,22.73
2018-06-20T05:09:23.366Z,22.81
2018-06-20T05:11:52.015Z,22.75
2018-06-20T05:14:21.377Z,22.81
2018-06-20T05:16:50.001Z,22.91
2018-06-20T05:19:18.611Z,23.00
2018-06-20T05:21:47.279Z,23.05
2018-06-20T05:24:15.879Z,23.25
2018-06-20T05:26:44.527Z,23.24
2018-06-20T05:29:13.196Z,23.32
2018-06-20T05:31:41.810Z,23.26
2018-06-20T05:34:11.377Z,23.23
2018-06-20T05:36:40.005Z,23.19
2018-06-20T05:39:10.398Z,23.24
2018-06-20T05:41:39.071Z,23.27
2018-06-20T05:44:08.214Z,23.32
2018-06-20T05:46:36.907Z,23.41
2018-06-20T05:49:05.753Z,23.46
2018-06-20T05:51:34.402Z,23.54
2018-06-20T05:54:03.069Z,23.50
2018-06-20T05:56:31.693Z,23.71
2018-06-20T05:59:00.306Z,23.79
2018-06-20T06:01:28.936Z,23.80
2018-06-20T06:06:31.328Z,23.92
2018-06-20T06:08:59.980Z,24.03
2018-06-20T06:11:28.598Z,24.09
2018-06-20T06:13:57.302Z,24.04
2018-06-20T06:16:25.935Z,24.05
2018-06-20T06:18:54.968Z,24.11
2018-06-20T06:21:23.575Z,24.13
2018-06-20T06:23:52.236Z,24.30
2018-06-20T06:26:20.858Z,24.45
2018-06-20T06:28:49.486Z,24.29
2018-06-20T06:31:18.111Z,24.37
2018-06-20T06:33:46.736Z,24.32
2018-06-20T06:36:15.409Z,24.48
2018-06-20T06:38:44.062Z,24.56
2018-06-20T06:41:12.738Z,24.55
2018-06-20T06:43:41.414Z,24.60
2018-06-20T06:46:10.113Z,24.54
2018-06-20T06:48:38.787Z,24.66
2018-06-20T06:51:07.430Z,24.57
2018-06-20T06:53:36.071Z,24.68
2018-06-20T06:56:04.827Z,24.74
2018-06-20T06:58:33.717Z,24.67
2018-06-20T07:01:02.350Z,24.76
2018-06-20T07:03:31.626Z,24.67
2018-06-20T07:06:00.303Z,24.62
2018-06-20T07:08:28.955Z,24.80
2018-06-20T07:10:57.622Z,24.77
2018-06-20T07:13:26.329Z,24.85
2018-06-20T07:15:55.102Z,24.90
2018-06-20T07:18:23.734Z,24.93
2018-06-20T07:20:52.425Z,24.89
2018-06-20T07:23:21.730Z,24.91
2018-06-20T07:25:50.374Z,24.92
2018-06-20T07:28:19.031Z,25.01
2018-06-20T07:30:47.708Z,25.14
2018-06-20T07:33:16.364Z,25.31
2018-06-20T07:35:45.049Z,25.46
2018-06-20T07:38:13.768Z,25.50
2018-06-20T07:40:42.467Z,25.47
2018-06-20T07:43:11.170Z,25.38
2018-06-20T07:45:40.583Z,25.66
2018-06-20T07:48:09.267Z,25.57
2018-06-20T07:50:37.987Z,25.39
2018-06-20T07:53:06.630Z,25.44
2018-06-20T07:55:35.297Z,25.54
2018-06-20T07:58:04.003Z,25.71
2018-06-20T08:00:37.975Z,25.78
2018-06-20T08:03:20.492Z,25.65
2018-06-20T08:05:54.519Z,25.89
2018-06-20T08:08:28.138Z,26.15
2018-06-20T08:11:01.811Z,26.06
2018-06-20T08:13:35.535Z,26.06
2018-06-20T08:16:09.326Z,26.01
2018-06-20T08:18:43.050Z,25.91
2018-06-20T08:21:11.746Z,25.91
2018-06-20T08:23:40.411Z,25.97
2018-06-20T08:26:09.085Z,26.14
2018-06-20T08:28:37.775Z,26.25
2018-06-20T08:31:06.414Z,26.34
2018-06-20T08:33:35.056Z,26.38
2018-06-20T08:36:03.723Z,26.32
2018-06-20T08:38:32.352Z,26.28
2018-06-20T08:41:00.998Z,26.65
2018-06-20T08:43:29.677Z,26.48
2018-06-20T08:45:58.311Z,26.52
2018-06-20T08:48:26.915Z,26.68
2018-06-20T08:50:55.581Z,26.64
2018-06-20T08:53:24.209Z,26.76
2018-06-20T08:55:52.871Z,26.78
2018-06-20T08:58:21.518Z,26.93
2018-06-20T09:01:02.913Z,26.90
2018-06-20T09:03:31.599Z,26.96
2018-06-20T09:06:05.357Z,27.06
2018-06-20T09:08:39.275Z,27.05
2018-06-20T09:11:12.958Z,27.20
2018-06-20T09:13:45.693Z,27.34
2018-06-20T09:16:19.637Z,27.34
2018-06-20T09:18:53.427Z,27.43
2018-06-20T09:21:22.088Z,27.57
2018-06-20T09:23:50.714Z,27.80
2018-06-20T09:26:19.339Z,27.95
2018-06-20T09:28:47.994Z,27.96
2018-06-20T09:31:16.609Z,28.18
2018-06-20T09:33:45.295Z,28.67
2018-06-20T09:36:13.960Z,28.90
2018-06-20T09:38:42.669Z,29.19
2018-06-20T09:41:11.295Z,29.38
2018-06-20T09:43:39.951Z,29.40
2018-06-20T09:46:08.637Z,29.55
2018-06-20T09:48:37.244Z,29.74
2018-06-20T09:51:05.970Z,29.96
2018-06-20T09:53:34.602Z,29.75
2018-06-20T09:56:03.275Z,29.76
2018-06-20T09:58:32.010Z,29.61
2018-06-20T10:01:05.845Z,29.27
2018-06-20T10:03:39.551Z,29.05
2018-06-20T10:06:13.379Z,29.20
2018-06-20T10:08:47.396Z,29.65
2018-06-20T10:11:21.144Z,30.17
2018-06-20T10:13:51.457Z,30.22
2018-06-20T10:16:25.427Z,30.12
2018-06-20T10:18:54.035Z,29.96
2018-06-20T10:21:22.741Z,29.53
2018-06-20T10:23:51.471Z,29.53
2018-06-20T10:26:20.114Z,29.70
2018-06-20T10:28:48.803Z,29.96
2018-06-20T10:31:17.474Z,30.20
2018-06-20T10:33:46.175Z,30.18
2018-06-20T10:36:14.859Z,30.68
2018-06-20T10:38:43.564Z,30.53
2018-06-20T10:41:12.238Z,30.23
2018-06-20T10:43:48.024Z,29.79
2018-06-20T10:46:22.138Z,29.85
2018-06-20T10:48:51.334Z,29.99
2018-06-20T10:51:20.065Z,30.14
2018-06-20T10:53:48.765Z,30.27
2018-06-20T10:56:23.223Z,30.34
2018-06-20T10:58:56.935Z,30.37
2018-06-20T11:01:30.638Z,30.64
2018-06-20T11:04:04.602Z,30.54
2018-06-20T11:06:38.295Z,30.69
2018-06-20T11:11:19.272Z,30.74
2018-06-20T11:13:48.087Z,30.45
2018-06-20T11:16:16.766Z,30.87
2018-06-20T11:18:48.778Z,31.09
2018-06-20T11:21:17.371Z,31.34
2018-06-20T11:23:46.001Z,31.54
2018-06-20T11:26:14.694Z,31.96
2018-06-20T11:28:43.340Z,32.51
2018-06-20T11:31:11.990Z,32.83
2018-06-20T11:33:41.266Z,32.94
2018-06-20T11:36:09.908Z,33.19
2018-06-20T11:38:38.534Z,33.48
2018-06-20T11:41:07.218Z,33.59
2018-06-20T11:43:35.907Z,33.51
2018-06-20T11:46:09.591Z,33.48
2018-06-20T11:48:38.190Z,33.64
2018-06-20T11:51:07.254Z,33.78
2018-06-20T11:53:36.763Z,33.68
2018-06-20T11:56:05.410Z,33.85
2018-06-20T11:58:39.119Z,34.02
2018-06-20T12:01:12.769Z,34.13
2018-06-20T12:03:46.479Z,34.64
2018-06-20T12:06:20.260Z,34.72
2018-06-20T12:08:54.091Z,34.88
2018-06-20T12:11:27.923Z,35.21
2018-06-20T12:14:01.640Z,35.45
2018-06-20T12:16:30.238Z,35.22
2018-06-20T12:19:03.990Z,35.63
2018-06-20T12:21:37.741Z,35.76
2018-06-20T12:24:11.563Z,35.50
2018-06-20T12:26:45.261Z,35.33
2018-06-20T12:29:19.180Z,35.67
2018-06-20T12:31:52.937Z,35.55
2018-06-20T12:34:26.745Z,35.41
2018-06-20T12:37:00.522Z,35.31
2018-06-20T12:39:28.391Z,35.30
2018-06-20T12:42:02.142Z,34.84
2018-06-20T12:44:35.798Z,34.94
2018-06-20T12:48:10.732Z,35.91
2018-06-20T12:50:40.003Z,35.97
2018-06-20T12:53:08.659Z,36.03
2018-06-20T12:55:37.368Z,36.08
2018-06-20T12:58:06.149Z,35.92
2018-06-20T13:00:34.799Z,35.61
2018-06-20T13:03:03.463Z,35.52
2018-06-20T13:05:32.376Z,35.37
2018-06-20T13:08:01.042Z,35.35
2018-06-20T13:10:29.685Z,35.27
2018-06-20T13:12:58.355Z,35.09
2018-06-20T13:15:26.986Z,35.64
2018-06-20T13:17:55.626Z,36.42
2018-06-20T13:20:24.280Z,36.68
2018-06-20T13:22:52.906Z,37.24
2018-06-20T13:25:21.510Z,37.20
2018-06-20T13:27:50.180Z,37.63
2018-06-20T13:30:18.850Z,37.27
2018-06-20T13:32:52.614Z,36.48
2018-06-20T13:35:26.363Z,36.76
2018-06-20T13:38:00.100Z,36.77
2018-06-20T13:40:33.906Z,37.03
2018-06-20T13:43:07.827Z,37.25
2018-06-20T13:45:41.614Z,37.46
2018-06-20T13:48:15.355Z,37.55
2018-06-20T13:50:44.112Z,37.36
2018-06-20T13:53:12.786Z,37.11
2018-06-20T13:55:41.719Z,36.75
2018-06-20T13:58:13.062Z,37.17
2018-06-20T14:00:41.908Z,37.17
2018-06-20T14:03:10.542Z,37.46
2018-06-20T14:05:39.167Z,37.75
2018-06-20T14:08:07.920Z,38.05
2018-06-20T14:10:36.561Z,38.07
2018-06-20T14:13:05.227Z,38.18
2018-06-20T14:15:33.935Z,39.24
2018-06-20T14:18:02.562Z,39.63
2018-06-20T14:20:36.423Z,40.22
2018-06-20T14:23:05.056Z,40.56
2018-06-20T14:25:33.662Z,41.48
2018-06-20T14:28:02.350Z,41.69
2018-06-20T14:30:36.174Z,42.36
2018-06-20T14:33:09.935Z,42.71
2018-06-20T14:35:43.620Z,41.74
2018-06-20T14:38:17.529Z,40.13
2018-06-20T14:40:51.355Z,40.37
2018-06-20T14:43:25.085Z,39.92
2018-06-20T14:45:58.768Z,38.46
2018-06-20T14:48:27.391Z,37.68
2018-06-20T14:50:56.058Z,37.81
2018-06-20T14:53:24.658Z,37.99
2018-06-20T14:55:53.308Z,38.97
2018-06-20T14:58:21.908Z,40.72
2018-06-20T15:00:50.567Z,42.10
2018-06-20T15:03:19.190Z,41.98
2018-06-20T15:05:47.838Z,41.15
2018-06-20T15:08:16.529Z,41.72
2018-06-20T15:10:45.199Z,42.24
2018-06-20T15:13:13.830Z,43.95
2018-06-20T15:15:42.799Z,44.70
2018-06-20T15:18:17.078Z,45.25
2018-06-20T15:20:45.714Z,44.35
2018-06-20T15:23:14.338Z,44.08
2018-06-20T15:25:47.107Z,43.42
2018-06-20T15:28:20.765Z,42.56
2018-06-20T15:30:54.468Z,41.66
2018-06-20T15:33:28.225Z,41.40
2018-06-20T15:36:02.024Z,42.73
2018-06-20T15:38:30.684Z,43.93
2018-06-20T15:40:59.337Z,44.56
2018-06-20T15:43:27.969Z,45.68
2018-06-20T15:45:56.610Z,45.16
2018-06-20T15:48:25.238Z,43.00
2018-06-20T15:50:53.881Z,41.72
2018-06-20T15:53:22.766Z,41.95
2018-06-20T15:55:51.396Z,41.43
2018-06-20T15:58:20.146Z,40.43
2018-06-20T16:00:49.003Z,39.04
2018-06-20T16:03:17.631Z,39.27
2018-06-20T16:05:46.365Z,40.55
2018-06-20T16:08:15.262Z,40.45
2018-06-20T16:10:43.953Z,39.80
2018-06-20T16:13:12.565Z,39.02
2018-06-20T16:15:41.209Z,38.82
2018-06-20T16:18:10.002Z,38.92
2018-06-20T16:20:43.883Z,38.69
2018-06-20T16:23:17.626Z,38.46
2018-06-20T16:25:51.426Z,38.20
2018-06-20T16:28:25.097Z,39.77
2018-06-20T16:30:53.814Z,40.69
2018-06-20T16:33:22.466Z,42.24
2018-06-20T16:35:51.128Z,42.64
2018-06-20T16:38:19.838Z,41.89
2018-06-20T16:40:48.505Z,41.23
2018-06-20T16:43:17.145Z,41.67
2018-06-20T16:45:46.348Z,42.93
2018-06-20T16:48:15.060Z,44.00
2018-06-20T16:50:43.716Z,44.74
2018-06-20T16:53:12.335Z,45.45
2018-06-20T16:55:41.039Z,44.95
2018-06-20T16:58:09.665Z,45.43
2018-06-20T17:00:38.270Z,45.28
2018-06-20T17:03:06.956Z,45.41
2018-06-20T17:05:35.570Z,45.50
2018-06-20T17:08:04.274Z,45.50
2018-06-20T17:10:32.894Z,45.84
2018-06-20T17:13:06.640Z,45.24
2018-06-20T17:15:40.301Z,45.44
2018-06-20T17:18:14.215Z,45.13
2018-06-20T17:20:47.997Z,44.97
2018-06-20T17:23:21.681Z,44.59
2018-06-20T17:25:50.361Z,44.57
2018-06-20T17:28:18.994Z,44.35
2018-06-20T17:30:47.635Z,44.22
2018-06-20T17:33:16.264Z,43.94
2018-06-20T17:35:44.880Z,43.59
2018-06-20T17:38:13.592Z,43.60
2018-06-20T17:40:42.210Z,42.97
2018-06-20T17:43:10.832Z,42.60
2018-06-20T17:45:39.511Z,42.20
2018-06-20T17:48:08.253Z,41.64
2018-06-20T17:50:36.854Z,41.33
2018-06-20T17:53:05.515Z,41.40
2018-06-20T17:55:34.203Z,41.09
2018-06-20T17:58:02.829Z,40.01
2018-06-20T18:00:31.552Z,39.60
2018-06-20T18:03:00.159Z,39.18
2018-06-20T18:07:37.870Z,38.07
2018-06-20T18:10:11.506Z,35.50
2018-06-20T18:12:45.172Z,34.50
2018-06-20T18:15:18.807Z,33.69
2018-06-20T18:17:47.458Z,33.07
2018-06-20T18:20:16.107Z,32.52
2018-06-20T18:22:44.780Z,31.99
2018-06-20T18:25:13.452Z,31.68
2018-06-20T18:27:42.087Z,31.24
2018-06-20T18:30:10.814Z,30.88
2018-06-20T18:32:39.464Z,30.61
2018-06-20T18:35:08.090Z,30.22
2018-06-20T18:37:36.870Z,29.99
2018-06-20T18:40:07.763Z,29.69
2018-06-20T18:42:36.649Z,29.41
2018-06-20T18:45:06.394Z,29.20
2018-06-20T18:47:40.300Z,28.99
2018-06-20T18:50:09.520Z,28.78
2018-06-20T18:52:38.325Z,28.58
2018-06-20T18:55:07.154Z,28.39
2018-06-20T18:57:40.893Z,28.17
2018-06-20T19:00:14.754Z,27.94
2018-06-20T19:02:48.507Z,27.73
2018-06-20T19:05:22.304Z,27.58
2018-06-20T19:07:56.400Z,27.39
2018-06-20T19:10:25.946Z,27.22
2018-06-20T19:12:54.598Z,27.07
2018-06-20T19:15:23.311Z,26.87
2018-06-20T19:17:52.004Z,26.70
2018-06-20T19:20:20.700Z,26.56
2018-06-20T19:22:49.414Z,26.42
2018-06-20T19:25:18.272Z,26.33
2018-06-20T19:27:47.278Z,26.22
2018-06-20T19:30:15.956Z,26.12
2018-06-20T19:32:44.676Z,26.05
2018-06-20T19:35:13.487Z,25.99
2018-06-20T19:37:42.191Z,25.84
2018-06-20T19:40:17.896Z,25.71
2018-06-20T19:42:46.690Z,25.60
2018-06-20T19:45:15.460Z,25.52
2018-06-20T19:47:44.187Z,25.42
2018-06-20T19:50:12.948Z,25.31
2018-06-20T19:52:42.950Z,25.22
2018-06-20T19:55:12.045Z,25.15
2018-06-20T19:57:40.766Z,25.05
2018-06-20T20:00:09.647Z,24.95
2018-06-20T20:02:38.572Z,24.89
2018-06-20T20:05:08.641Z,24.83
2018-06-20T20:07:37.345Z,24.76
2018-06-20T20:10:06.496Z,24.72
2018-06-20T20:12:37.131Z,24.71
2018-06-20T20:17:44.531Z,24.70
2018-06-20T20:20:18.183Z,24.60
2018-06-20T20:35:37.010Z,24.34
2018-06-20T20:38:05.761Z,24.30
2018-06-20T20:40:34.803Z,24.27
2018-06-20T20:43:03.807Z,24.27
2018-06-20T20:45:32.410Z,24.30
2018-06-20T20:48:01.066Z,24.27
2018-06-20T20:50:30.132Z,24.19
2018-06-20T20:52:58.898Z,24.12
2018-06-20T20:55:27.673Z,24.04
2018-06-20T20:57:56.495Z,23.97
2018-06-20T21:00:25.138Z,23.90
2018-06-20T21:02:54.225Z,23.93
2018-06-20T21:05:27.152Z,23.89
2018-06-20T21:07:55.980Z,23.87
2018-06-20T21:10:25.012Z,23.80
2018-06-20T21:12:54.605Z,23.75
2018-06-20T21:15:24.327Z,23.70
2018-06-20T21:17:53.168Z,23.65
2018-06-20T21:20:22.683Z,23.63
2018-06-20T21:22:51.654Z,23.65
2018-06-20T21:25:20.532Z,23.63
2018-06-20T21:27:51.559Z,23.61
2018-06-20T21:30:22.431Z,23.56
2018-06-20T21:32:51.163Z,23.60
2018-06-20T21:35:21.329Z,23.59
2018-06-20T21:37:51.357Z,23.57
2018-06-20T21:40:20.241Z,23.57
2018-06-20T21:42:51.019Z,23.69
2018-06-20T21:45:24.265Z,23.71
2018-06-20T21:47:58.986Z,23.71
2018-06-20T21:50:28.511Z,23.67
2018-06-20T21:52:58.997Z,23.63
2018-06-20T21:55:30.344Z,23.58
2018-06-20T21:57:59.725Z,23.52
2018-06-20T22:00:29.745Z,23.43
2018-06-20T22:15:49.650Z,23.15
2018-06-20T22:18:18.368Z,23.06
2018-06-20T22:20:47.038Z,23.02
2018-06-20T22:23:16.355Z,23.01
2018-06-20T22:25:45.074Z,22.95
2018-06-20T22:28:13.731Z,22.96
2018-06-20T22:30:42.997Z,23.00
2018-06-20T22:33:11.618Z,22.99
2018-06-20T22:35:40.231Z,22.98
2018-06-20T22:38:08.981Z,22.87
2018-06-20T22:40:37.621Z,22.80
2018-06-20T22:43:06.263Z,22.72
2018-06-20T22:45:34.905Z,22.63
2018-06-20T22:48:03.564Z,22.55
2018-06-20T22:50:32.960Z,22.52
2018-06-20T22:53:01.678Z,22.56
2018-06-20T22:55:30.334Z,22.62
2018-06-20T22:57:58.949Z,22.59
2018-06-20T23:00:27.598Z,22.56
2018-06-20T23:02:57.814Z,22.60
2018-06-20T23:05:31.785Z,22.52
2018-06-20T23:08:00.404Z,22.48
2018-06-20T23:10:29.021Z,22.46
2018-06-20T23:12:57.716Z,22.38
2018-06-20T23:15:26.407Z,22.34
2018-06-20T23:17:55.054Z,22.31
2018-06-20T23:20:23.692Z,22.22
2018-06-20T23:22:52.302Z,22.16
2018-06-20T23:25:20.923Z,22.10
2018-06-20T23:27:49.625Z,22.05
2018-06-20T23:30:18.275Z,22.05
2018-06-20T23:32:46.888Z,22.07
2018-06-20T23:35:15.577Z,22.14
2018-06-20T23:37:44.190Z,22.13
2018-06-20T23:40:12.814Z,22.05
2018-06-20T23:42:41.451Z,21.97
2018-06-20T23:45:10.189Z,21.90
2018-06-20T23:47:38.895Z,21.87
2018-06-20T23:50:07.585Z,21.85
2018-06-20T23:52:36.211Z,21.85
2018-06-20T23:55:05.095Z,21.77
2018-06-20T23:57:33.938Z,21.68
